createdAt,value
2018-07-19T00:00:24.859Z,99.99
2018-07-19T00:01:24.842Z,99.99
2018-07-19T00:02:24.826Z,99.99
2018-07-19T00:03:24.830Z,99.99
2018-07-19T00:04:24.793Z,99.99
2018-07-19T00:05:24.774Z,99.99
2018-07-19T00:06:24.758Z,99.99
2018-07-19T00:07:24.740Z,99.99
2018-07-19T00:08:24.724Z,99.99
2018-07-19T00:09:24.717Z,99.99
2018-07-19T00:10:24.691Z,99.99
2018-07-19T00:11:24.674Z,99.99
2018-07-19T00:12:24.655Z,99.99
2018-07-19T00:13:24.640Z,99.99
2018-07-19T00:14:24.636Z,99.99
2018-07-19T00:15:24.605Z,99.99
2018-07-19T00:16:24.589Z,99.99
2018-07-19T00:17:24.570Z,99.99
2018-07-19T00:18:24.555Z,99.99
2018-07-19T00:19:24.550Z,99.99
2018-07-19T00:20:24.520Z,99.99
2018-07-19T00:21:24.503Z,99.99
2018-07-19T00:22:24.487Z,99.99
2018-07-19T00:23:24.469Z,99.99
2018-07-19T00:24:24.469Z,99.99
2018-07-19T00:25:24.436Z,99.99
2018-07-19T00:26:24.422Z,99.99
2018-07-19T00:27:24.400Z,99.99
2018-07-19T00:28:24.382Z,99.99
2018-07-19T00:29:24.368Z,99.99
2018-07-19T00:30:24.364Z,99.99
2018-07-19T00:31:24.333Z,99.99
2018-07-19T00:32:24.318Z,99.99
2018-07-19T00:33:24.300Z,99.99
2018-07-19T00:34:24.283Z,99.99
2018-07-19T00:35:24.277Z,99.99
2018-07-19T00:36:24.249Z,99.99
2018-07-19T00:37:24.232Z,99.99
2018-07-19T00:38:24.215Z,99.99
2018-07-19T00:39:24.196Z,99.99
2018-07-19T00:40:24.197Z,99.99
2018-07-19T00:41:24.165Z,99.99
2018-07-19T00:42:24.147Z,99.99
2018-07-19T00:43:24.131Z,99.99
2018-07-19T00:44:24.116Z,99.99
2018-07-19T00:45:24.096Z,99.99
2018-07-19T00:46:24.090Z,99.99
2018-07-19T00:47:24.061Z,99.99
2018-07-19T00:48:24.045Z,99.99
2018-07-19T00:49:24.027Z,99.99
2018-07-19T00:50:24.010Z,99.99
2018-07-19T00:51:24.002Z,99.99
2018-07-19T00:52:23.975Z,99.99
2018-07-19T00:53:23.957Z,99.99
2018-07-19T00:54:23.940Z,99.99
2018-07-19T00:55:23.923Z,99.99
2018-07-19T00:56:23.915Z,99.99
2018-07-19T00:57:23.888Z,99.99
2018-07-19T00:58:23.874Z,99.99
2018-07-19T00:59:23.853Z,99.99
2018-07-19T01:00:23.836Z,99.99
2018-07-19T01:01:23.836Z,99.99
2018-07-19T01:02:23.803Z,99.99
2018-07-19T01:03:23.787Z,99.99
2018-07-19T01:04:23.767Z,99.99
2018-07-19T01:05:23.750Z,99.99
2018-07-19T01:06:23.735Z,99.99
2018-07-19T01:07:23.727Z,99.99
2018-07-19T01:08:23.699Z,99.99
2018-07-19T01:09:23.681Z,99.99
2018-07-19T01:10:23.664Z,99.99
2018-07-19T01:11:23.647Z,99.99
2018-07-19T01:12:23.638Z,99.99
2018-07-19T01:13:23.612Z,99.99
2018-07-19T01:14:23.596Z,99.99
2018-07-19T01:15:23.574Z,99.99
2018-07-19T01:16:23.559Z,99.99
2018-07-19T01:17:23.558Z,99.99
2018-07-19T01:18:23.528Z,99.99
2018-07-19T01:19:23.506Z,99.99
2018-07-19T01:20:23.490Z,99.99
2018-07-19T01:21:23.472Z,99.99
2018-07-19T01:22:23.453Z,99.99
2018-07-19T01:23:23.446Z,99.99
2018-07-19T01:24:23.419Z,99.99
2018-07-19T01:25:23.403Z,99.99
2018-07-19T01:26:23.392Z,99.99
2018-07-19T01:27:23.369Z,99.99
2018-07-19T01:28:23.359Z,99.99
2018-07-19T01:29:23.331Z,99.99
2018-07-19T01:30:23.314Z,99.99
2018-07-19T01:31:23.296Z,99.99
2018-07-19T01:32:23.279Z,99.99
2018-07-19T01:33:23.282Z,99.99
2018-07-19T01:34:23.247Z,99.99
2018-07-19T01:35:23.226Z,99.99
2018-07-19T01:36:23.209Z,99.99
2018-07-19T01:37:23.191Z,99.99
2018-07-19T01:38:23.174Z,99.99
2018-07-19T01:39:23.168Z,99.99
2018-07-19T01:40:23.138Z,99.99
2018-07-19T01:41:23.120Z,99.99
2018-07-19T01:42:23.102Z,99.99
2018-07-19T01:43:23.084Z,99.99
2018-07-19T01:44:23.082Z,99.99
2018-07-19T01:45:23.050Z,99.99
2018-07-19T01:46:23.033Z,99.99
2018-07-19T01:47:23.014Z,99.99
2018-07-19T01:48:22.996Z,99.99
2018-07-19T01:49:22.978Z,99.99
2018-07-19T01:50:22.972Z,99.99
2018-07-19T01:51:22.944Z,99.99
2018-07-19T01:52:22.941Z,99.99
2018-07-19T01:53:22.909Z,99.99
2018-07-19T01:54:22.891Z,99.99
2018-07-19T01:55:22.888Z,99.99
2018-07-19T01:56:22.855Z,99.99
2018-07-19T01:57:22.838Z,99.99
2018-07-19T01:58:22.819Z,99.99
2018-07-19T01:59:22.801Z,99.99
2018-07-19T02:00:22.793Z,99.99
2018-07-19T02:01:22.767Z,99.99
2018-07-19T02:02:22.750Z,99.99
2018-07-19T02:03:22.729Z,99.99
2018-07-19T02:04:22.713Z,99.99
2018-07-19T02:05:22.712Z,99.99
2018-07-19T02:06:22.679Z,99.99
2018-07-19T02:07:22.704Z,99.99
2018-07-19T02:08:22.641Z,99.99
2018-07-19T02:09:22.624Z,99.99
2018-07-19T02:10:22.607Z,99.99
2018-07-19T02:11:22.597Z,99.99
2018-07-19T02:12:22.572Z,99.99
2018-07-19T02:13:22.552Z,99.99
2018-07-19T02:14:22.537Z,99.99
2018-07-19T02:15:22.517Z,99.99
2018-07-19T02:16:22.509Z,99.99
2018-07-19T02:17:22.480Z,99.99
2018-07-19T02:18:22.467Z,99.99
2018-07-19T02:19:22.448Z,99.99
2018-07-19T02:20:22.425Z,99.99
2018-07-19T02:21:22.420Z,99.99
2018-07-19T02:22:22.392Z,99.99
2018-07-19T02:23:22.373Z,99.99
2018-07-19T02:24:22.355Z,99.99
2018-07-19T02:25:22.338Z,99.99
2018-07-19T02:26:22.332Z,99.99
2018-07-19T02:27:22.302Z,99.99
2018-07-19T02:28:22.285Z,99.99
2018-07-19T02:29:22.266Z,99.99
2018-07-19T02:30:22.250Z,99.99
2018-07-19T02:31:22.245Z,99.99
2018-07-19T02:32:22.213Z,99.99
2018-07-19T02:33:22.194Z,99.99
2018-07-19T02:34:22.176Z,99.99
2018-07-19T02:35:22.158Z,99.99
2018-07-19T02:36:22.139Z,99.99
2018-07-19T02:37:22.132Z,99.99
2018-07-19T02:38:22.103Z,99.99
2018-07-19T02:39:22.085Z,99.99
2018-07-19T02:40:22.068Z,99.99
2018-07-19T02:41:22.050Z,99.99
2018-07-19T02:42:22.042Z,99.99
2018-07-19T02:43:22.020Z,99.99
2018-07-19T02:44:21.996Z,99.99
2018-07-19T02:45:21.980Z,99.99
2018-07-19T02:46:21.959Z,99.99
2018-07-19T02:47:21.951Z,99.99
2018-07-19T02:48:21.923Z,99.99
2018-07-19T02:49:21.904Z,99.99
2018-07-19T02:50:21.886Z,99.99
2018-07-19T02:51:21.869Z,99.99
2018-07-19T02:52:21.865Z,99.99
2018-07-19T02:53:21.832Z,99.99
2018-07-19T02:54:21.818Z,99.99
2018-07-19T02:55:21.795Z,99.99
2018-07-19T02:56:21.777Z,99.99
2018-07-19T02:57:21.758Z,99.99
2018-07-19T02:58:21.753Z,99.99
2018-07-19T02:59:21.722Z,99.99
2018-07-19T03:00:21.706Z,99.99
2018-07-19T03:01:21.685Z,99.99
2018-07-19T03:02:21.672Z,99.99
2018-07-19T03:03:21.663Z,99.99
2018-07-19T03:04:21.632Z,99.99
2018-07-19T03:05:21.615Z,99.99
2018-07-19T03:06:21.598Z,99.99
2018-07-19T03:07:21.579Z,99.99
2018-07-19T03:08:21.559Z,99.99
2018-07-19T03:09:21.552Z,99.99
2018-07-19T03:10:21.524Z,99.99
2018-07-19T03:11:21.506Z,99.99
2018-07-19T03:12:21.487Z,99.99
2018-07-19T03:13:21.478Z,99.99
2018-07-19T03:14:21.462Z,99.99
2018-07-19T03:15:21.436Z,99.99
2018-07-19T03:16:21.415Z,99.99
2018-07-19T03:17:21.397Z,99.99
2018-07-19T03:18:21.379Z,99.99
2018-07-19T03:19:21.371Z,99.99
2018-07-19T03:20:21.341Z,99.99
2018-07-19T03:21:21.324Z,99.99
2018-07-19T03:22:21.308Z,99.99
2018-07-19T03:23:21.289Z,99.99
2018-07-19T03:24:21.286Z,99.99
2018-07-19T03:25:21.251Z,99.99
2018-07-19T03:26:21.234Z,99.99
2018-07-19T03:27:21.214Z,99.99
2018-07-19T03:28:21.197Z,99.99
2018-07-19T03:29:21.178Z,99.99
2018-07-19T03:30:21.174Z,99.99
2018-07-19T03:31:21.143Z,99.99
2018-07-19T03:32:21.124Z,99.99
2018-07-19T03:33:21.106Z,99.99
2018-07-19T03:34:21.088Z,99.99
2018-07-19T03:35:21.079Z,99.99
2018-07-19T03:36:21.050Z,99.99
2018-07-19T03:37:21.040Z,99.99
2018-07-19T03:38:21.017Z,99.99
2018-07-19T03:39:20.999Z,99.99
2018-07-19T03:40:20.993Z,99.99
2018-07-19T03:41:20.960Z,99.99
2018-07-19T03:42:20.941Z,99.99
2018-07-19T03:43:20.923Z,99.99
2018-07-19T03:44:20.905Z,99.99
2018-07-19T03:45:20.889Z,99.99
2018-07-19T03:46:20.877Z,99.99
2018-07-19T03:47:20.849Z,99.99
2018-07-19T03:48:20.833Z,99.99
2018-07-19T03:49:20.813Z,99.99
2018-07-19T03:50:20.797Z,99.99
2018-07-19T03:51:20.787Z,99.99
2018-07-19T03:52:20.761Z,99.99
2018-07-19T03:53:20.739Z,99.99
2018-07-19T03:54:20.725Z,99.99
2018-07-19T03:55:20.703Z,99.99
2018-07-19T03:56:20.697Z,99.99
2018-07-19T03:57:20.667Z,99.99
2018-07-19T03:58:20.653Z,99.99
2018-07-19T03:59:20.631Z,99.99
2018-07-19T04:00:20.614Z,99.99
2018-07-19T04:01:20.617Z,99.99
2018-07-19T04:02:20.576Z,99.99
2018-07-19T04:03:20.555Z,99.99
2018-07-19T04:04:20.541Z,99.99
2018-07-19T04:05:20.522Z,99.99
2018-07-19T04:06:20.503Z,99.99
2018-07-19T04:07:20.495Z,99.99
2018-07-19T04:08:20.467Z,99.99
2018-07-19T04:09:20.449Z,99.99
2018-07-19T04:10:20.431Z,99.99
2018-07-19T04:11:20.412Z,99.99
2018-07-19T04:12:20.411Z,99.99
2018-07-19T04:13:20.376Z,99.99
2018-07-19T04:14:20.359Z,99.99
2018-07-19T04:15:20.338Z,99.99
2018-07-19T04:16:20.321Z,99.99
2018-07-19T04:17:20.304Z,99.99
2018-07-19T04:18:20.294Z,99.99
2018-07-19T04:19:20.266Z,99.99
2018-07-19T04:20:20.248Z,99.99
2018-07-19T04:21:20.231Z,99.99
2018-07-19T04:22:20.213Z,99.99
2018-07-19T04:23:20.209Z,99.99
2018-07-19T04:24:20.175Z,99.99
2018-07-19T04:25:20.158Z,99.99
2018-07-19T04:26:20.138Z,99.99
2018-07-19T04:27:20.120Z,99.99
2018-07-19T04:28:20.115Z,99.99
2018-07-19T04:29:20.087Z,99.99
2018-07-19T04:30:20.066Z,99.99
2018-07-19T04:31:20.046Z,99.99
2018-07-19T04:32:20.041Z,99.99
2018-07-19T04:33:20.021Z,99.99
2018-07-19T04:34:19.994Z,99.99
2018-07-19T04:35:19.974Z,99.99
2018-07-19T04:36:19.956Z,99.99
2018-07-19T04:37:19.938Z,99.99
2018-07-19T04:38:19.969Z,99.99
2018-07-19T04:39:19.914Z,99.99
2018-07-19T04:40:19.883Z,99.99
2018-07-19T04:41:19.866Z,99.99
2018-07-19T04:42:19.851Z,99.99
2018-07-19T04:43:19.829Z,99.99
2018-07-19T04:44:19.826Z,99.99
2018-07-19T04:45:19.793Z,99.99
2018-07-19T04:46:19.776Z,99.99
2018-07-19T04:47:19.759Z,99.99
2018-07-19T04:48:19.784Z,99.99
2018-07-19T04:49:19.725Z,99.99
2018-07-19T04:50:19.744Z,99.99
2018-07-19T04:51:19.684Z,99.99
2018-07-19T04:52:19.666Z,99.99
2018-07-19T04:53:19.651Z,99.99
2018-07-19T04:54:19.631Z,99.99
2018-07-19T04:55:19.629Z,99.99
2018-07-19T04:56:19.595Z,99.99
2018-07-19T04:57:19.580Z,99.99
2018-07-19T04:58:19.559Z,99.99
2018-07-19T04:59:19.540Z,99.99
2018-07-19T05:00:19.546Z,99.99
2018-07-19T05:01:19.505Z,99.99
2018-07-19T05:02:19.487Z,99.99
2018-07-19T05:03:19.469Z,99.99
2018-07-19T05:04:19.450Z,99.99
2018-07-19T05:05:19.435Z,99.99
2018-07-19T05:06:19.428Z,99.99
2018-07-19T05:07:19.399Z,99.99
2018-07-19T05:08:19.379Z,99.99
2018-07-19T05:09:19.362Z,99.99
2018-07-19T05:10:19.345Z,99.99
2018-07-19T05:11:19.335Z,99.99
2018-07-19T05:12:19.313Z,99.99
2018-07-19T05:13:19.293Z,99.99
2018-07-19T05:14:19.273Z,99.99
2018-07-19T05:15:19.254Z,99.99
2018-07-19T05:16:19.247Z,99.99
2018-07-19T05:17:19.219Z,99.99
2018-07-19T05:18:19.204Z,99.99
2018-07-19T05:19:19.184Z,99.99
2018-07-19T05:20:19.165Z,99.99
2018-07-19T05:21:19.170Z,99.99
2018-07-19T05:22:19.130Z,99.99
2018-07-19T05:23:19.112Z,99.99
2018-07-19T05:24:19.096Z,99.99
2018-07-19T05:25:19.077Z,99.99
2018-07-19T05:26:19.059Z,99.99
2018-07-19T05:27:19.052Z,99.99
2018-07-19T05:28:19.023Z,99.99
2018-07-19T05:29:19.007Z,99.99
2018-07-19T05:30:18.991Z,99.99
2018-07-19T05:31:18.971Z,99.99
2018-07-19T05:32:18.969Z,99.99
2018-07-19T05:33:18.936Z,99.99
2018-07-19T05:34:18.919Z,99.99
2018-07-19T05:35:18.900Z,99.99
2018-07-19T05:36:18.895Z,99.99
2018-07-19T05:37:18.866Z,99.99
2018-07-19T05:38:18.861Z,99.99
2018-07-19T05:39:18.831Z,99.99
2018-07-19T05:40:18.813Z,99.99
2018-07-19T05:41:18.796Z,99.99
2018-07-19T05:42:18.812Z,99.99
2018-07-19T05:43:18.772Z,99.99
2018-07-19T05:44:18.745Z,99.99
2018-07-19T05:45:18.729Z,99.99
2018-07-19T05:46:18.712Z,99.99
2018-07-19T05:47:18.692Z,99.99
2018-07-19T05:48:18.691Z,99.99
2018-07-19T05:49:18.658Z,99.99
2018-07-19T05:50:18.641Z,99.99
2018-07-19T05:51:18.624Z,99.99
2018-07-19T05:52:18.608Z,99.99
2018-07-19T05:53:18.591Z,99.99
2018-07-19T05:54:18.582Z,99.99
2018-07-19T05:55:18.563Z,99.99
2018-07-19T05:56:18.539Z,99.99
2018-07-19T05:57:18.521Z,99.99
2018-07-19T05:58:18.536Z,99.99
2018-07-19T05:59:18.497Z,99.99
2018-07-19T06:00:18.470Z,99.99
2018-07-19T06:01:18.455Z,99.99
2018-07-19T06:02:18.441Z,99.99
2018-07-19T06:03:18.421Z,99.99
2018-07-19T06:04:18.415Z,99.99
2018-07-19T06:05:18.388Z,99.99
2018-07-19T06:06:18.377Z,99.99
2018-07-19T06:07:18.354Z,99.99
2018-07-19T06:08:18.338Z,99.99
2018-07-19T06:09:18.343Z,99.99
2018-07-19T06:10:18.316Z,99.99
2018-07-19T06:11:18.288Z,99.99
2018-07-19T06:12:18.276Z,99.99
2018-07-19T06:13:18.258Z,99.99
2018-07-19T06:14:18.241Z,99.99
2018-07-19T06:15:18.235Z,99.99
2018-07-19T06:16:18.209Z,99.99
2018-07-19T06:17:18.194Z,99.99
2018-07-19T06:18:18.179Z,99.99
2018-07-19T06:19:18.162Z,99.99
2018-07-19T06:20:18.159Z,99.99
2018-07-19T06:21:18.133Z,99.99
2018-07-19T06:22:18.115Z,99.99
2018-07-19T06:23:18.102Z,99.35
2018-07-19T06:24:18.086Z,97.57
2018-07-19T06:25:18.092Z,97.28
2018-07-19T06:26:18.054Z,97.04
2018-07-19T06:27:18.039Z,94.44
2018-07-19T06:28:18.039Z,94.20
2018-07-19T06:29:18.009Z,90.01
2018-07-19T06:30:17.994Z,91.65
2018-07-19T06:31:17.991Z,93.57
2018-07-19T06:32:17.963Z,90.11
2018-07-19T06:33:17.948Z,89.77
2018-07-19T06:34:17.936Z,89.67
2018-07-19T06:35:17.918Z,87.17
2018-07-19T06:36:17.916Z,87.26
2018-07-19T06:37:17.889Z,86.92
2018-07-19T06:38:17.874Z,86.87
2018-07-19T06:39:17.858Z,85.09
2018-07-19T06:40:17.844Z,84.27
2018-07-19T06:41:17.864Z,82.14
2018-07-19T06:42:17.815Z,83.94
2018-07-19T06:43:17.803Z,83.64
2018-07-19T06:44:17.786Z,89.39
2018-07-19T06:45:17.774Z,85.77
2018-07-19T06:46:17.765Z,86.77
2018-07-19T06:47:17.752Z,83.53
2018-07-19T06:48:17.732Z,79.97
2018-07-19T06:49:17.716Z,79.62
2018-07-19T06:50:17.700Z,77.69
2018-07-19T06:51:17.688Z,79.85
2018-07-19T06:52:17.682Z,76.09
2018-07-19T06:53:17.656Z,77.15
2018-07-19T06:54:17.642Z,75.99
2018-07-19T06:55:17.630Z,76.47
2018-07-19T06:56:17.614Z,75.12
2018-07-19T06:57:17.610Z,73.96
2018-07-19T06:58:17.587Z,76.18
2018-07-19T06:59:17.579Z,77.28
2018-07-19T07:00:17.558Z,73.22
2018-07-19T07:01:17.543Z,72.55
2018-07-19T07:02:17.550Z,72.84
2018-07-19T07:03:17.517Z,72.84
2018-07-19T07:04:17.501Z,74.68
2018-07-19T07:05:17.489Z,71.58
2018-07-19T07:06:17.474Z,73.90
2018-07-19T07:07:17.465Z,71.48
2018-07-19T07:08:17.459Z,71.23
2018-07-19T07:09:17.433Z,69.04
2018-07-19T07:10:17.427Z,69.14
2018-07-19T07:11:17.406Z,69.10
2018-07-19T07:12:17.392Z,67.59
2018-07-19T07:13:17.388Z,68.40
2018-07-19T07:14:17.365Z,66.56
2018-07-19T07:15:17.350Z,66.33
2018-07-19T07:16:17.337Z,67.08
2018-07-19T07:17:17.324Z,68.24
2018-07-19T07:18:17.328Z,68.24
2018-07-19T07:19:17.296Z,68.14
2018-07-19T07:20:17.282Z,69.33
2018-07-19T07:21:17.366Z,68.69
2018-07-19T07:22:17.258Z,67.95
2018-07-19T07:23:17.242Z,65.92
2018-07-19T07:24:17.240Z,64.56
2018-07-19T07:25:17.219Z,65.08
2018-07-19T07:26:17.204Z,68.68
2018-07-19T07:27:17.191Z,69.20
2018-07-19T07:28:17.215Z,72.25
2018-07-19T07:29:17.173Z,76.40
2018-07-19T07:30:17.150Z,76.78
2018-07-19T07:31:17.136Z,77.65
2018-07-19T07:32:17.122Z,78.86
2018-07-19T07:33:17.109Z,76.36
2018-07-19T07:34:17.131Z,77.76
2018-07-19T07:35:17.085Z,80.69
2018-07-19T07:36:17.069Z,77.81
2018-07-19T07:37:17.057Z,78.61
2018-07-19T07:38:17.044Z,77.84
2018-07-19T07:39:17.030Z,75.20
2018-07-19T07:40:17.031Z,74.95
2018-07-19T07:41:17.003Z,80.93
2018-07-19T07:42:16.992Z,77.75
2018-07-19T07:43:16.978Z,75.53
2018-07-19T07:44:16.986Z,76.01
2018-07-19T07:45:16.992Z,75.05
2018-07-19T07:46:16.939Z,75.14
2018-07-19T07:47:16.924Z,75.95
2018-07-19T07:48:16.924Z,74.31
2018-07-19T07:49:16.898Z,72.86
2018-07-19T07:50:16.889Z,74.12
2018-07-19T07:51:16.888Z,72.28
2018-07-19T07:52:16.871Z,74.12
2018-07-19T07:53:16.846Z,74.21
2018-07-19T07:54:16.961Z,72.96
2018-07-19T07:55:16.821Z,72.77
2018-07-19T07:56:16.818Z,76.47
2018-07-19T07:57:16.797Z,74.51
2018-07-19T07:58:16.784Z,73.15
2018-07-19T07:59:16.775Z,74.44
2018-07-19T08:00:16.758Z,74.35
2018-07-19T08:01:16.769Z,74.06
2018-07-19T08:02:16.731Z,74.16
2018-07-19T08:03:16.718Z,75.22
2018-07-19T08:04:16.708Z,72.32
2018-07-19T08:05:16.695Z,74.16
2018-07-19T08:06:16.684Z,74.16
2018-07-19T08:07:16.680Z,73.09
2018-07-19T08:08:16.657Z,72.61
2018-07-19T08:09:16.646Z,71.78
2018-07-19T08:10:16.635Z,71.36
2018-07-19T08:11:16.619Z,70.90
2018-07-19T08:12:16.616Z,71.48
2018-07-19T08:13:16.594Z,70.81
2018-07-19T08:14:16.582Z,71.97
2018-07-19T08:15:16.568Z,71.68
2018-07-19T08:16:16.556Z,71.88
2018-07-19T08:17:16.566Z,71.97
2018-07-19T08:18:16.532Z,72.06
2018-07-19T08:19:16.519Z,71.20
2018-07-19T08:20:16.508Z,71.00
2018-07-19T08:21:16.494Z,69.40
2018-07-19T08:22:16.485Z,70.56
2018-07-19T08:23:16.481Z,69.49
2018-07-19T08:24:16.457Z,70.20
2018-07-19T08:25:16.455Z,71.17
2018-07-19T08:26:16.438Z,69.43
2018-07-19T08:27:16.420Z,69.72
2018-07-19T08:28:16.420Z,70.59
2018-07-19T08:29:16.396Z,69.53
2018-07-19T08:30:16.384Z,69.04
2018-07-19T08:31:16.372Z,67.69
2018-07-19T08:32:16.459Z,67.72
2018-07-19T08:33:16.370Z,68.75
2018-07-19T08:34:16.340Z,67.82
2018-07-19T08:35:16.325Z,68.79
2018-07-19T08:36:16.312Z,68.01
2018-07-19T08:37:16.321Z,68.59
2018-07-19T08:38:16.293Z,67.82
2018-07-19T08:39:16.286Z,68.43
2018-07-19T08:40:16.267Z,67.72
2018-07-19T08:41:16.251Z,68.21
2018-07-19T08:42:16.251Z,69.69
2018-07-19T08:43:16.229Z,68.85
2018-07-19T08:44:16.230Z,66.53
2018-07-19T08:45:16.206Z,66.05
2018-07-19T08:46:16.197Z,68.95
2018-07-19T08:47:16.182Z,66.72
2018-07-19T08:48:16.173Z,66.53
2018-07-19T08:49:16.169Z,65.08
2018-07-19T08:50:16.149Z,66.72
2018-07-19T08:51:16.139Z,65.95
2018-07-19T08:52:16.126Z,64.98
2018-07-19T08:53:16.117Z,63.43
2018-07-19T08:54:16.123Z,65.40
2018-07-19T08:55:16.091Z,65.59
2018-07-19T08:57:16.072Z,62.49
2018-07-19T08:58:16.059Z,62.88
2018-07-19T08:59:16.048Z,61.82
2018-07-19T09:00:16.049Z,61.52
2018-07-19T09:01:16.025Z,62.13
2018-07-19T09:02:16.065Z,65.72
2018-07-19T09:03:16.003Z,65.66
2018-07-19T09:04:15.994Z,63.04
2018-07-19T09:05:15.995Z,63.62
2018-07-19T09:06:15.970Z,61.55
2018-07-19T09:07:15.959Z,61.26
2018-07-19T09:08:15.946Z,60.85
2018-07-19T09:09:15.937Z,60.88
2018-07-19T09:10:15.944Z,60.68
2018-07-19T09:11:15.917Z,63.17
2018-07-19T09:12:15.906Z,62.79
2018-07-19T09:13:15.895Z,62.10
2018-07-19T09:14:15.884Z,62.40
2018-07-19T09:15:15.872Z,62.30
2018-07-19T09:16:15.873Z,62.30
2018-07-19T09:17:15.851Z,61.75
2018-07-19T09:18:15.856Z,62.43
2018-07-19T09:19:15.829Z,63.01
2018-07-19T09:20:15.831Z,62.95
2018-07-19T09:21:15.828Z,62.16
2018-07-19T09:22:15.801Z,61.81
2018-07-19T09:23:15.785Z,58.90
2018-07-19T09:24:15.778Z,58.51
2018-07-19T09:25:15.765Z,60.06
2018-07-19T09:26:15.878Z,58.80
2018-07-19T09:27:15.749Z,57.93
2018-07-19T09:28:15.735Z,57.61
2018-07-19T09:29:15.723Z,57.32
2018-07-19T09:30:15.713Z,58.12
2018-07-19T09:31:15.701Z,56.93
2018-07-19T09:32:15.704Z,57.42
2018-07-19T09:33:15.685Z,57.39
2018-07-19T09:34:15.677Z,57.36
2018-07-19T09:35:15.659Z,58.91
2018-07-19T09:36:16.180Z,59.10
2018-07-19T09:37:15.648Z,57.75
2018-07-19T09:38:15.633Z,56.87
2018-07-19T09:39:15.616Z,54.45
2018-07-19T09:40:15.606Z,56.29
2018-07-19T09:41:15.597Z,55.22
2018-07-19T09:42:15.601Z,55.04
2018-07-19T09:43:15.572Z,56.13
2018-07-19T09:44:15.564Z,54.09
2018-07-19T09:45:15.553Z,54.09
2018-07-19T09:46:15.542Z,53.80
2018-07-19T09:47:15.531Z,52.34
2018-07-19T09:48:15.531Z,52.54
2018-07-19T09:49:15.509Z,53.87
2018-07-19T09:50:15.497Z,53.02
2018-07-19T09:51:15.488Z,53.12
2018-07-19T09:52:15.479Z,53.99
2018-07-19T09:53:15.476Z,54.38
2018-07-19T09:54:15.455Z,54.11
2018-07-19T09:55:15.444Z,50.99
2018-07-19T09:56:15.436Z,49.05
2018-07-19T09:57:15.423Z,50.12
2018-07-19T09:58:15.427Z,50.99
2018-07-19T09:59:15.400Z,50.92
2018-07-19T10:00:15.390Z,51.59
2018-07-19T10:01:15.382Z,51.31
2018-07-19T10:02:15.368Z,51.62
2018-07-19T10:03:15.368Z,50.07
2018-07-19T10:04:15.345Z,50.07
2018-07-19T10:05:15.335Z,48.13
2018-07-19T10:06:15.325Z,47.83
2018-07-19T10:07:15.315Z,48.22
2018-07-19T10:08:15.316Z,49.00
2018-07-19T10:09:15.287Z,48.61
2018-07-19T10:10:15.345Z,48.83
2018-07-19T10:11:15.270Z,50.77
2018-07-19T10:12:15.258Z,48.64
2018-07-19T10:13:15.264Z,48.64
2018-07-19T10:14:15.241Z,47.66
2018-07-19T10:15:15.234Z,47.49
2018-07-19T10:16:15.215Z,47.59
2018-07-19T10:17:15.222Z,45.65
2018-07-19T10:18:15.198Z,45.62
2018-07-19T10:19:15.194Z,47.78
2018-07-19T10:20:15.174Z,44.78
2018-07-19T10:21:15.164Z,44.31
2018-07-19T10:22:15.154Z,45.17
2018-07-19T10:23:15.143Z,45.57
2018-07-19T10:24:15.186Z,45.97
2018-07-19T10:25:15.122Z,47.32
2018-07-19T10:26:15.112Z,46.25
2018-07-19T10:27:15.100Z,47.13
2018-07-19T10:28:15.093Z,44.72
2018-07-19T10:29:15.098Z,43.36
2018-07-19T10:30:15.071Z,42.78
2018-07-19T10:31:15.059Z,44.12
2018-07-19T10:32:15.214Z,45.97
2018-07-19T10:33:15.041Z,44.72
2018-07-19T10:34:15.094Z,44.33
2018-07-19T10:35:15.030Z,46.37
2018-07-19T10:36:15.010Z,43.67
2018-07-19T10:37:15.000Z,42.29
2018-07-19T10:38:14.989Z,42.21
2018-07-19T10:39:14.978Z,41.44
2018-07-19T10:40:14.979Z,42.97
2018-07-19T10:41:14.960Z,45.65
2018-07-19T10:42:14.950Z,45.45
2018-07-19T10:43:14.939Z,45.17
2018-07-19T10:44:14.952Z,44.99
2018-07-19T10:45:14.931Z,46.35
2018-07-19T10:46:14.911Z,46.72
2018-07-19T10:47:14.900Z,44.78
2018-07-19T10:48:14.887Z,46.31
2018-07-19T10:49:14.881Z,46.41
2018-07-19T10:50:14.894Z,45.17
2018-07-19T10:51:14.860Z,45.38
2018-07-19T10:52:14.851Z,44.21
2018-07-19T10:53:14.840Z,44.51
2018-07-19T10:54:14.830Z,44.79
2018-07-19T10:55:14.823Z,45.26
2018-07-19T10:56:14.859Z,44.68
2018-07-19T10:57:14.807Z,44.95
2018-07-19T10:58:14.791Z,45.41
2018-07-19T10:59:14.779Z,45.31
2018-07-19T11:00:14.771Z,45.51
2018-07-19T11:01:14.775Z,46.01
2018-07-19T11:02:14.752Z,45.24
2018-07-19T11:03:14.741Z,45.07
2018-07-19T11:04:14.730Z,44.09
2018-07-19T11:05:14.720Z,44.41
2018-07-19T11:06:14.711Z,44.21
2018-07-19T11:07:14.711Z,41.61
2018-07-19T11:08:14.689Z,41.05
2018-07-19T11:09:14.679Z,40.97
2018-07-19T11:10:14.671Z,40.99
2018-07-19T11:11:14.659Z,40.80
2018-07-19T11:12:14.662Z,39.80
2018-07-19T11:13:14.655Z,40.42
2018-07-19T11:14:14.630Z,40.11
2018-07-19T11:15:14.621Z,39.55
2018-07-19T11:16:14.611Z,38.98
2018-07-19T11:17:14.613Z,38.82
2018-07-19T11:18:14.590Z,36.98
2018-07-19T11:19:14.581Z,37.15
2018-07-19T11:20:14.571Z,38.35
2018-07-19T11:21:14.564Z,37.67
2018-07-19T11:22:14.574Z,36.31
2018-07-19T11:23:14.543Z,37.01
2018-07-19T11:24:14.529Z,37.63
2018-07-19T11:25:14.525Z,37.85
2018-07-19T11:26:14.517Z,37.46
2018-07-19T11:27:14.501Z,37.25
2018-07-19T11:28:14.507Z,37.27
2018-07-19T11:29:14.486Z,38.45
2018-07-19T11:30:14.484Z,36.21
2018-07-19T11:31:14.470Z,37.17
2018-07-19T11:32:14.459Z,36.51
2018-07-19T11:33:14.458Z,36.10
2018-07-19T11:34:14.441Z,36.41
2018-07-19T11:35:14.441Z,36.62
2018-07-19T11:36:14.420Z,37.70
2018-07-19T11:37:14.407Z,37.19
2018-07-19T11:38:14.438Z,36.93
2018-07-19T11:39:14.397Z,36.07
2018-07-19T11:40:14.383Z,35.87
2018-07-19T11:41:14.386Z,35.01
2018-07-19T11:42:14.372Z,33.74
2018-07-19T11:43:14.358Z,33.72
2018-07-19T11:44:14.358Z,33.62
2018-07-19T11:45:14.359Z,35.85
2018-07-19T11:46:14.337Z,34.78
2018-07-19T11:47:14.353Z,34.99
2018-07-19T11:48:14.331Z,34.86
2018-07-19T11:49:15.117Z,34.84
2018-07-19T11:50:14.403Z,34.08
2018-07-19T11:51:14.979Z,34.18
2018-07-19T11:52:14.980Z,36.62
2018-07-19T11:53:14.314Z,35.55
2018-07-19T11:54:14.376Z,34.70
2018-07-19T11:55:14.422Z,34.89
2018-07-19T11:56:14.378Z,35.09
2018-07-19T11:57:14.238Z,34.34
2018-07-19T11:58:14.340Z,34.55
2018-07-19T11:59:14.243Z,33.72
2018-07-19T12:00:15.582Z,31.07
2018-07-19T12:01:14.205Z,32.63
2018-07-19T12:02:14.344Z,33.64
2018-07-19T12:03:15.083Z,31.97
2018-07-19T12:04:15.073Z,32.23
2018-07-19T12:05:14.991Z,30.88
2018-07-19T12:06:14.308Z,32.14
2018-07-19T12:07:14.300Z,31.37
2018-07-19T12:08:14.243Z,31.29
2018-07-19T12:09:14.243Z,31.27
2018-07-19T12:10:14.251Z,33.10
2018-07-19T12:11:15.111Z,32.81
2018-07-19T12:12:14.235Z,32.43
2018-07-19T12:13:14.231Z,31.81
2018-07-19T12:14:14.133Z,32.90
2018-07-19T12:15:14.645Z,33.59
2018-07-19T12:16:14.065Z,32.53
2018-07-19T12:17:14.099Z,31.47
2018-07-19T12:18:14.056Z,30.68
2018-07-19T12:19:14.091Z,30.10
2018-07-19T12:20:14.049Z,28.51
2018-07-19T12:21:14.023Z,30.15
2018-07-19T12:22:14.049Z,30.15
2018-07-19T12:23:14.073Z,31.94
2018-07-19T12:24:14.103Z,30.18
2018-07-19T12:25:14.100Z,31.80
2018-07-19T12:26:13.972Z,31.21
2018-07-19T12:27:13.968Z,31.41
2018-07-19T12:28:13.961Z,32.27
2018-07-19T12:29:13.944Z,31.87
2018-07-19T12:30:13.935Z,32.39
2018-07-19T12:31:13.957Z,32.40
2018-07-19T12:32:13.935Z,31.71
2018-07-19T12:33:13.915Z,31.13
2018-07-19T12:34:13.916Z,32.03
2018-07-19T12:35:13.911Z,29.88
2018-07-19T12:36:13.900Z,29.72
2018-07-19T12:37:13.876Z,29.10
2018-07-19T12:38:13.872Z,31.65
2018-07-19T12:39:13.853Z,30.98
2018-07-19T12:40:13.860Z,29.49
2018-07-19T12:41:13.857Z,28.82
2018-07-19T12:42:13.835Z,28.45
2018-07-19T12:43:13.833Z,29.53
2018-07-19T12:44:13.815Z,29.73
2018-07-19T12:45:13.806Z,31.50
2018-07-19T12:46:13.818Z,30.40
2018-07-19T12:47:13.786Z,29.05
2018-07-19T12:48:13.791Z,29.16
2018-07-19T12:49:13.773Z,28.64
2018-07-19T12:50:13.765Z,27.77
2018-07-19T12:51:13.757Z,29.68
2018-07-19T12:52:13.765Z,31.63
2018-07-19T12:53:13.744Z,31.16